• Join FlightAware (Why Join?)
  • Login
  • US Flag 
04:26AM EDT


 

Airport Tracker/Info


-or-


 

Live Flight TrackerFlight Track Log ✈ SWA499 ✈ 22-Apr-2013 ✈ KMCI - KBWI

Flight Track Log - Related Links

Times and Time Zones

All times are in EDT time to prevent confusion due to time zone crossing. See the SWA499 flight status page for this flight to view local times or setup timezone preferences in your user account.

Time Position Orientation Groundspeed Altitude Reporting Facility
EDT Latitude Longitude Course Direction KTS MPH feet Rate Location/Type
02:44PM 39.2667 -94.7333 206° Southwest 165 190 2,500  Level Kansas City TRACON
02:45PM 39.2136 -94.7111 162° South 210 242 6,100 2,820 Climbing Kansas City Center
02:46PM 39.2044 -94.6269 98° East 263 303 8,800 3,240 Climbing Kansas City Center
02:47PM 39.2344 -94.5106 72° East 305 351 12,700 3,000 Climbing Kansas City Center
02:48PM 39.2647 -94.4014 70° East 337 388 15,100 2,400 Climbing Kansas City Center
02:49PM 39.2978 -94.2792 71° East 373 429 17,700 2,640 Climbing Kansas City Center
02:50PM 39.3381 -94.1303 71° East 394 453 20,500 2,400 Climbing Kansas City Center
02:51PM 39.3744 -93.9964 71° East 411 473 22,700 2,220 Climbing Kansas City Center
02:52PM 39.4025 -93.8267 78° East 433 498 25,200 2,340 Climbing Kansas City Center
02:53PM 39.4217 -93.6753 81° East 445 512 27,500 2,160 Climbing Kansas City Center
02:54PM 39.4414 -93.5217 81° East 438 504 29,800 1,980 Climbing Kansas City Center
02:55PM 39.4608 -93.3656 81° East 442 509 31,800 2,040 Climbing Kansas City Center
02:56PM 39.4811 -93.1797 82° East 441 507 34,100 1,500 Climbing Kansas City Center
02:57PM 39.4994 -93.0203 81° East 450 518 34,900 720 Climbing Kansas City Center
02:59PM 39.5186 -92.8569 81° East 466 536 35,700 720 Climbing Kansas City Center
03:00PM 39.5378 -92.6878 82° East 474 545 36,500 900 Climbing Kansas City Center
03:01PM 39.5619 -92.4797 81° East 486 559 37,600 960 Climbing Kansas City Center
03:02PM 39.5808 -92.3064 82° East 491 565 38,600 660 Climbing Kansas City Center
03:03PM 39.5994 -92.1308 82° East 495 570 39,000 180 Climbing Kansas City Center
03:04PM 39.6186 -91.9536 82° East 500 575 39,000  Level Kansas City Center
03:05PM 39.6383 -91.7789 82° East 498 573 39,000  Level Kansas City Center
03:06PM 39.6589 -91.5708 83° East 493 567 39,000  Level Kansas City Center
03:07PM 39.6758 -91.3969 83° East 491 565 39,000  Level Kansas City Center
03:08PM 39.6958 -91.2089 82° East 495 570 39,000  Level Kansas City Center
03:09PM 39.7139 -91.0308 82° East 497 572 39,000  Level Kansas City Center
03:10PM 39.7322 -90.8544 82° East 494 568 39,000  Level Kansas City Center
03:11PM 39.7478 -90.6756 83° East 496 571 39,000  Level Kansas City Center
03:12PM 39.7667 -90.4836 83° East 491 565 39,000  Level Kansas City Center
03:13PM 39.7833 -90.3089 83° East 489 563 39,000  Level Kansas City Center
03:14PM 39.7989 -90.1333 83° East 490 564 39,000  Level Kansas City Center
03:15PM 39.8144 -89.9567 83° East 492 566 39,000  Level Kansas City Center
03:16PM 39.8297 -89.7811 83° East 492 566 39,000  Level Kansas City Center
03:17PM 39.8397 -89.6047 86° East 491 565 39,000  Level Kansas City Center
03:18PM 39.8406 -89.3911 90° East 494 568 39,000  Level Kansas City Center
03:19PM 39.8419 -89.2125 89° East 496 571 39,000  Level Kansas City Center
03:20PM 39.8417 -89.0342 90° East 495 570 39,000  Level Kansas City Center
03:21PM 39.8419 -88.8547 90° East 497 572 39,000  Level Kansas City Center
03:22PM 39.8417 -88.6764 90° East 495 570 39,000  Level Kansas City Center
03:23PM 39.8419 -88.5003 90° East 491 565 39,000  Level Kansas City Center
03:24PM 39.8425 -88.2900 90° East 489 563 39,000  Level Kansas City Center
03:25PM 39.8550 -88.1161 85° East 482 555 39,000  Level Kansas City Center
03:26PM 39.8556 -88.0828 89° East 483 556 39,000  Level Indianapolis Center
03:27PM 39.8664 -87.8719 86° East 482 555 39,000  Level Indianapolis Center
03:28PM 39.8753 -87.6967 86° East 483 556 39,000  Level Indianapolis Center
03:29PM 39.8839 -87.5200 86° East 485 558 39,000  Level Indianapolis Center
03:30PM 39.8919 -87.3414 87° East 489 563 39,000  Level Indianapolis Center
03:31PM 39.9000 -87.1633 87° East 490 564 39,000  Level Indianapolis Center
03:32PM 39.9089 -86.9850 86° East 491 565 39,000  Level Indianapolis Center
03:33PM 39.9156 -86.8039 87° East 497 572 39,000  Level Indianapolis Center
03:34PM 39.9239 -86.6286 86° East 487 560 39,000  Level Indianapolis Center
03:35PM 39.9300 -86.4533 87° East 482 555 39,000  Level Indianapolis Center
03:36PM 39.9392 -86.2419 87° East 484 557 39,000  Level Indianapolis Center
03:37PM 39.9453 -86.0661 87° East 484 557 39,000  Level Indianapolis Center
03:38PM 39.9519 -85.9064 87° East 488 562 39,000  Level Indianapolis Center
03:39PM 39.9575 -85.6986 88° East 488 562 39,000  Level Indianapolis Center
03:40PM 39.9628 -85.5219 88° East 487 560 39,000  Level Indianapolis Center
03:41PM 39.9694 -85.3464 87° East 483 556 39,000  Level Indianapolis Center
03:42PM 39.9733 -85.1700 88° East 482 555 39,000  Level Indianapolis Center
03:43PM 39.9794 -84.9956 87° East 479 551 39,000  Level Indianapolis Center
03:44PM 39.9833 -84.8208 88° East 478 550 39,000  Level Indianapolis Center
03:45PM 39.9886 -84.6458 88° East 479 551 39,000  Level Indianapolis Center
03:46PM 39.9919 -84.4694 89° East 481 554 39,000  Level Indianapolis Center
03:47PM 39.9969 -84.2942 88° East 482 555 39,000  Level Indianapolis Center
03:48PM 40.0008 -84.0892 89° East 481 554 39,000  Level Indianapolis Center
03:49PM 40.0031 -83.9128 89° East 480 552 39,000  Level Indianapolis Center
03:50PM 40.0053 -83.7356 89° East 481 554 39,000  Level Indianapolis Center
03:51PM 40.0083 -83.5575 89° East 482 555 39,000  Level Indianapolis Center
03:52PM 40.0114 -83.3778 89° East 482 555 39,000  Level Indianapolis Center
03:53PM 40.0142 -83.1997 89° East 482 555 39,000  Level Indianapolis Center
03:54PM 40.0153 -83.0239 89° East 479 551 39,000  Level Indianapolis Center
03:56PM 40.0172 -82.8489 89° East 477 549 39,000  Level Indianapolis Center
03:57PM 40.0192 -82.6739 89° East 478 550 39,000  Level Indianapolis Center
03:58PM 40.0197 -82.4989 90° East 479 551 39,000  Level Indianapolis Center
03:59PM 40.0206 -82.3247 90° East 476 548 39,000  Level Indianapolis Center
04:00PM 40.0211 -82.1489 90° East 482 555 39,000  Level Indianapolis Center
04:01PM 40.0211 -81.9442 90° East 480 552 39,000  Level Indianapolis Center
04:02PM 40.0211 -81.7683 90° East 481 554 39,000  Level Indianapolis Center
04:03PM 40.0211 -81.6083 90° East 481 554 39,000  Level Indianapolis Center
04:04PM 40.0200 -81.4314 90° East 484 557 39,000  Level Indianapolis Center
04:05PM 40.0172 -81.2267 91° East 483 556 39,000  Level Indianapolis Center
04:06PM 39.9900 -81.0558 102° East 478 550 39,000  Level Indianapolis Center
04:06PM 39.9831 -80.9842 97° East 476 548 39,000  Level Cleveland Center
04:07PM 39.9522 -80.7997 102° East 481 554 39,000  Level Cleveland Center
04:08PM 39.9253 -80.6319 102° East 475 547 39,000  Level Cleveland Center
04:09PM 39.8983 -80.4639 102° East 475 547 39,000  Level Cleveland Center
04:10PM 39.8708 -80.2964 102° East 470 541 39,000 -180 Level Cleveland Center
04:11PM 39.8433 -80.1317 102° East 470 541 38,700 -660 Descending Cleveland Center
04:12PM 39.8133 -79.9642 103° East 470 541 37,700 -1,500 Descending Cleveland Center
04:13PM 39.7850 -79.7942 102° East 470 541 35,700 -2,580 Descending Cleveland Center
04:14PM 39.7567 -79.6272 102° East 470 541 32,600 -2,700 Descending Cleveland Center
04:15PM 39.7389 -79.5286 103° East 469 540 31,200 -2,280 Descending Washington Center
04:16PM 39.7108 -79.3653 103° East 464 534 28,800 -2,340 Descending Washington Center
04:17PM 39.6864 -79.2131 102° East 452 520 26,600 -1,920 Descending Washington Center
04:18PM 39.6575 -79.0658 104° East 431 496 25,000 -840 Descending Washington Center
04:19PM 39.6203 -78.9053 107° East 418 481 25,000 -420 Level Washington Center
04:20PM 39.5908 -78.7639 105° East 418 481 24,200 -1,380 Descending Washington Center
04:21PM 39.5589 -78.6225 106° East 418 481 22,300 -1,920 Descending Washington Center
04:22PM 39.5289 -78.4919 107° East 403 464 20,400 -1,860 Descending Washington Center
04:23PM 39.5006 -78.3592 105° East 387 445 18,600 -2,160 Descending Washington Center
04:24PM 39.4722 -78.2342 106° East 376 433 16,100 -1,800 Descending Washington Center
04:25PM 39.4481 -78.1017 103° East 376 433 15,000 -600 Descending Washington Center
04:26PM 39.4506 -77.9728 89° East 364 419 15,000  Level Washington Center
04:27PM 39.4489 -77.8436 91° East 359 413 15,000  Level Washington Center
04:28PM 39.4469 -77.7172 91° East 354 407 15,000 -840 Level Washington Center
04:29PM 39.4469 -77.5911 90° East 349 402 13,400 -1,800 Descending Washington Center
04:30PM 39.4450 -77.4647 91° East 349 402 11,500 -1,200 Descending Washington Center
04:31PM 39.4508 -77.3519 86° East 332 382 11,000 -360 Descending Washington Center
04:31PM 39.4667 -77.3000 68° East 299 344 11,000 -900 Level Potomac TRACON
04:33PM 39.4833 -77.2000 78° East 300 345 9,700 -1,380 Descending Potomac TRACON
04:34PM 39.5000 -77.1000 78° East 292 336 8,300 -1,380 Descending Potomac TRACON
04:35PM 39.5167 -77.0000 78° East 281 323 7,000 -1,200 Descending Potomac TRACON
04:36PM 39.5167 -76.9000 90° East 269 310 5,900 -1,320 Descending Potomac TRACON
04:36PM 39.4833 -76.8500 131° Southeast 269 310 4,500 -1,020 Descending Potomac TRACON
04:37PM 39.4333 -76.9167 226° Southwest 262 302 4,000 -300 Descending Potomac TRACON
04:38PM 39.3833 -77.0000 232° Southwest 267 307 4,000 -420 Level Potomac TRACON
04:39PM 39.3333 -77.0667 226° Southwest 274 315 3,200 -540 Descending Potomac TRACON
04:40PM 39.2833 -77.0333 153° Southeast 233 268 3,000 -120 Descending Potomac TRACON
04:41PM 39.2500 -76.9667 123° Southeast 188 216 3,000  Level Potomac TRACON
04:42PM 39.2333 -76.9000 108° East 170 196 3,000 -60 Level Potomac TRACON
04:43PM 39.2167 -76.8500 113° Southeast 170 196 2,900 -540 Descending Potomac TRACON
04:44PM 39.1833 -76.8000 131° Southeast 170 196 2,000 -900 Descending Potomac TRACON
04:45PM 39.1833 -76.7500 90° East 139 160 1,100 -840 Descending Potomac TRACON
04:46PM 39.1833 -76.7000 90° East 128 147 400 -720 Descending Potomac TRACON
04:48PM 39.1667 -76.6667 106° East  Level FlightAware Approximate